METAR UND TAF INFORMATION
LEJR 250030Z AUTO VRB02KT 9000 NSC 08/06 Q1025

 FLUGHAFENKARTE

 RUNWAY INFORMATION
Runway 02 Runway length 7546 ft Runway width 148 ft
Runway elevation 68 ft Runway displaced threshold 0 ft Runway heading 21
Runway 20 Runway length 7546 ft Runway width 148 ft
Runway elevation 93 ft Runway displaced threshold 0 ft Runway heading 201

 AIRPORT FREQUENCIES
Type APP Name APP Frequency 128.5 MHZ
Type GND Name GND Frequency 121.6 MHZ
Type TWR Name TWR Frequency 118.55 MHZ

 AIRPORT NEAR NAVIGATION AIDS
Type NDB Name Jerez Frequency 433 KHZ
Type VOR-DME Name Jerez Frequency 113000 KHZ